Aeroporto :
LOGIN :

Iscrizione | Disclaimer

   EN    FR    IT 

 










Sommario :    VFR   VFR Marginale   IFR   IFR Intensivo   IFR Molto Intensivo
Visibilità : 
Base nubi : 
>= 8 km
>= 3000ft
5 / 8 km
1000 / 3000 ft
1500m / 5 km
500 / 1000 ft
800 / 1500m
200 / 500 ft
< 800m
< 200 ft
Simboli :   Temporali  Nebbia  Neve Forte  Precipitazioni Forti  Vento > 20 kt
SIGMETs :   Varie  Temporali  Ghiacco  Turbolenza  Onda orograficha  Ceneri Vulcaniche







- Altitudine del aeroporto : 135 ft
- Codice IATA : EDI
- Carte del aeroporto


EGPH - Edinburgh

ULTIMO METAR :
  • 230520Z 23009KT 9999 BKN019 18/16 Q1015

METARs OBSOLETI :
  • 230450Z 24010KT 9999 BKN017 18/16 Q1015
  • 230420Z 22008KT CAVOK 17/16 Q1015
  • 230350Z VRB03KT CAVOK 17/15 Q1015
  • 230320Z 24004KT CAVOK 17/15 Q1015
  • 230250Z 20006KT CAVOK 17/16 Q1015

TAF TAF EGPH
Valido dal 23 a 06 ore il 24 a 06 ore UTC


230500Z 2306/2406 24010KT CAVOK
BECMG 2318/2321 06007KT
PROB30
TEMPO 2401/2406 19010KT 3000 +TSRA
ATIS : +44 131 339 2823
Nessun NOTAM noto per questo aeroporto.
1 SIGMET conosciuto per la FIR Scottish (EGPX) :
 
Forte onda orograficha
EGPX SIGMET 01 VALID 230200/230600 EGRR
EGPX SCOTTISH FIR SEV MTW FCST WI N5922 W00713 - N5959 W00106 - N5731 W00101 - N5658 W00617 - N5922 W00713 FL050/200 MOV N 10KT NC=



MetMap, La meteo Aeronautica in un colpo d'occhio ! - Copyright ORBIFLY Dicembre 2007 - Disclaimer

ORBIFLY MET'MAP TEAM :

Programmazione e sviluppo : Alexandra Zaïnal
Concezione e sviluppo : Baudouin d'Aumeries
Co-Programmazione e sviluppo : Marc-Olivier Méhu
Supporto tecnico e logistico : Manuel Goepfert
Aiuto per la traduzione : Arnaldo La Scala

Contatto : metmap@orbifly.com




FONTI E CREDITI :

   NOAA